Time;durP1;ratioP1;P1;durP2;ratioP2;P2;SDS_P1;SDS_P2;PMS_P1;PMS_P2;Temp;Humidity;BMP_temperature;BMP_pressure;BME280_temperature;BME280_humidity;BME280_pressure;Samples;Min_cycle;Max_cycle;Signal;HPM_P1;HPM_P2
2021/10/24 00:00:28;;;;;;;6.10;2.90;;;;;;;;;;5011167;28;20665;-87
2021/10/24 00:03:33;;;;;;;6.23;3.67;;;;;;;;;;5011463;28;20595;-87
2021/10/24 00:06:36;;;;;;;10.57;3.30;;;;;;;;;;4999591;28;21152;-87
2021/10/24 00:09:41;;;;;;;7.40;3.20;;;;;;;;;;4980484;28;20544;-87
2021/10/24 00:12:45;;;;;;;6.83;3.00;;;;;;;;;;4991882;28;20541;-87
2021/10/24 00:15:49;;;;;;;6.93;2.97;;;;;;;;;;5011025;28;20587;-87
2021/10/24 00:18:53;;;;;;;7.37;3.33;;;;;;;;;;4999476;28;21153;-87
2021/10/24 00:21:58;;;;;;;7.50;3.00;;;;;;;;;;5010725;28;20611;-87
2021/10/24 00:25:03;;;;;;;6.53;3.13;;;;;;;;;;5021618;28;20953;-87
2021/10/24 00:28:07;;;;;;;9.60;3.13;;;;;;;;;;4999375;28;20583;-87
2021/10/24 00:31:12;;;;;;;7.33;3.40;;;;;;;;;;4999652;28;20645;-87
2021/10/24 00:34:16;;;;;;;7.13;2.90;;;;;;;;;;5010873;28;20536;-87
2021/10/24 00:37:20;;;;;;;10.83;3.73;;;;;;;;;;4991163;28;20537;-87
2021/10/24 00:40:26;;;;;;;5.40;3.20;;;;;;;;;;5010138;28;20624;-87
2021/10/24 00:43:30;;;;;;;6.27;2.60;;;;;;;;;;5010572;28;20536;-87
2021/10/24 00:46:34;;;;;;;8.50;2.67;;;;;;;;;;5010743;28;20544;-87
2021/10/24 00:49:38;;;;;;;7.03;2.27;;;;;;;;;;5015290;28;20599;-87
2021/10/24 00:52:43;;;;;;;9.00;3.00;;;;;;;;;;4998981;28;20615;-87
2021/10/24 00:55:48;;;;;;;9.07;3.57;;;;;;;;;;4998747;28;20615;-87
2021/10/24 00:58:53;;;;;;;7.23;2.80;;;;;;;;;;5009725;28;21189;-87
2021/10/24 01:01:57;;;;;;;3.50;2.53;;;;;;;;;;4999102;28;20643;-87
2021/10/24 01:05:05;;;;;;;6.13;3.00;;;;;;;;;;5010180;28;20584;-87
2021/10/24 01:08:09;;;;;;;7.50;2.90;;;;;;;;;;4998935;28;20544;-87
2021/10/24 01:11:13;;;;;;;6.17;2.47;;;;;;;;;;4999361;28;20615;-87
2021/10/24 01:14:17;;;;;;;7.17;2.70;;;;;;;;;;4998635;28;20588;-87
2021/10/24 01:17:23;;;;;;;3.30;2.70;;;;;;;;;;4998941;28;20591;-87
2021/10/24 01:20:28;;;;;;;5.77;2.50;;;;;;;;;;4998360;28;20663;-87
2021/10/24 01:23:32;;;;;;;5.57;2.73;;;;;;;;;;5010213;28;20548;-87
2021/10/24 01:26:39;;;;;;;8.60;3.03;;;;;;;;;;5009717;28;21164;-87
2021/10/24 01:29:43;;;;;;;4.17;2.43;;;;;;;;;;5009870;28;20592;-87
2021/10/24 01:32:49;;;;;;;7.80;2.90;;;;;;;;;;5010063;28;20596;-87
2021/10/24 01:35:58;;;;;;;6.33;2.70;;;;;;;;;;5009324;28;21129;-86
2021/10/24 01:39:03;;;;;;;7.57;2.50;;;;;;;;;;4979199;28;20545;-87
2021/10/24 01:42:08;;;;;;;4.17;2.20;;;;;;;;;;4990373;28;20620;-87
2021/10/24 01:45:12;;;;;;;4.77;2.83;;;;;;;;;;5006448;28;20592;-87
2021/10/24 01:48:17;;;;;;;6.73;2.80;;;;;;;;;;4998511;28;20532;-87
2021/10/24 01:51:22;;;;;;;15.70;3.53;;;;;;;;;;4998455;28;20630;-87
2021/10/24 01:54:26;;;;;;;6.07;3.03;;;;;;;;;;4998326;28;20592;-87
2021/10/24 01:57:31;;;;;;;7.03;2.67;;;;;;;;;;5024962;28;20595;-87
2021/10/24 02:00:36;;;;;;;5.03;2.60;;;;;;;;;;5013334;28;20662;-87
2021/10/24 02:03:40;;;;;;;5.00;2.70;;;;;;;;;;5012977;28;20800;-87
2021/10/24 02:07:04;;;;;;;4.20;2.50;;;;;;;;;;5027938;28;20587;-87
2021/10/24 02:10:12;;;;;;;6.10;2.70;;;;;;;;;;5014416;28;20548;-87
2021/10/24 02:13:17;;;;;;;4.73;2.77;;;;;;;;;;5003065;28;20596;-87
2021/10/24 02:16:21;;;;;;;7.73;2.57;;;;;;;;;;5011717;28;20587;-87
2021/10/24 02:19:27;;;;;;;4.83;2.70;;;;;;;;;;5024378;28;20544;-87
2021/10/24 02:22:32;;;;;;;4.10;2.27;;;;;;;;;;5012799;28;20607;-87
2021/10/24 02:25:38;;;;;;;9.53;2.93;;;;;;;;;;5012894;28;21137;-87
2021/10/24 02:28:42;;;;;;;5.37;3.07;;;;;;;;;;5013374;28;20539;-87
2021/10/24 02:31:46;;;;;;;6.30;3.07;;;;;;;;;;5001449;28;20614;-86
2021/10/24 02:35:17;;;;;;;4.33;2.37;;;;;;;;;;5004885;28;20595;-86
2021/10/24 02:38:21;;;;;;;7.67;2.80;;;;;;;;;;5013267;28;20555;-87
2021/10/24 02:41:25;;;;;;;6.93;2.90;;;;;;;;;;5012813;28;20658;-87
2021/10/24 02:44:35;;;;;;;6.20;3.20;;;;;;;;;;5001565;28;20596;-87
2021/10/24 02:47:40;;;;;;;5.63;2.67;;;;;;;;;;5012364;28;20599;-87
2021/10/24 02:50:48;;;;;;;6.83;2.67;;;;;;;;;;5001649;28;21212;-86
2021/10/24 02:53:54;;;;;;;4.73;2.80;;;;;;;;;;5001357;28;20595;-87
2021/10/24 02:57:00;;;;;;;6.80;3.13;;;;;;;;;;5001419;28;20540;-87
2021/10/24 03:00:06;;;;;;;8.10;3.10;;;;;;;;;;5001110;28;20575;-86
2021/10/24 03:03:13;;;;;;;8.30;3.43;;;;;;;;;;5001972;28;20880;-87
2021/10/24 03:06:19;;;;;;;4.77;2.87;;;;;;;;;;4992875;28;20549;-87
2021/10/24 03:09:23;;;;;;;4.40;3.10;;;;;;;;;;4992649;28;21103;-87
2021/10/24 03:12:27;;;;;;;5.07;2.80;;;;;;;;;;5007673;28;20647;-87
2021/10/24 03:15:31;;;;;;;6.27;3.07;;;;;;;;;;5011885;28;20588;-86
2021/10/24 03:18:35;;;;;;;5.07;3.23;;;;;;;;;;5001066;28;21098;-87
2021/10/24 03:21:40;;;;;;;4.37;2.80;;;;;;;;;;5001034;28;20658;-87
2021/10/24 03:24:44;;;;;;;9.93;2.97;;;;;;;;;;5000413;28;20591;-87
2021/10/24 03:27:49;;;;;;;6.03;2.90;;;;;;;;;;5000393;28;20603;-87
2021/10/24 03:30:56;;;;;;;8.23;3.53;;;;;;;;;;4991525;28;20642;-87
2021/10/24 03:34:01;;;;;;;10.33;3.50;;;;;;;;;;5000580;28;20619;-86
2021/10/24 03:37:05;;;;;;;4.93;3.13;;;;;;;;;;5012101;28;20540;-86
2021/10/24 03:40:12;;;;;;;7.47;3.90;;;;;;;;;;5011164;28;20591;-87
2021/10/24 03:43:16;;;;;;;5.13;3.70;;;;;;;;;;5000607;28;20938;-87
2021/10/24 03:46:21;;;;;;;6.50;3.80;;;;;;;;;;4999778;28;21176;-87
2021/10/24 03:49:25;;;;;;;7.13;3.70;;;;;;;;;;4999875;28;20623;-87
2021/10/24 03:52:30;;;;;;;8.50;4.43;;;;;;;;;;5030676;23;20675;-86
2021/10/24 03:55:35;;;;;;;7.83;3.67;;;;;;;;;;5022244;28;21168;-87
2021/10/24 03:58:42;;;;;;;8.93;4.53;;;;;;;;;;5011097;28;20619;-87
2021/10/24 04:01:46;;;;;;;12.63;4.50;;;;;;;;;;5012770;28;20652;-87
2021/10/24 04:04:50;;;;;;;6.90;4.47;;;;;;;;;;4980238;28;20597;-87
2021/10/24 04:07:56;;;;;;;7.10;4.10;;;;;;;;;;4991808;28;20541;-87
2021/10/24 04:11:00;;;;;;;9.03;4.80;;;;;;;;;;4991671;28;20620;-87
2021/10/24 04:14:05;;;;;;;9.20;4.57;;;;;;;;;;4980274;28;20588;-87
2021/10/24 04:17:11;;;;;;;7.07;4.43;;;;;;;;;;4990702;28;20581;-86
2021/10/24 04:20:23;;;;;;;5.73;4.13;;;;;;;;;;5001953;28;20881;-87
2021/10/24 04:23:27;;;;;;;7.03;4.20;;;;;;;;;;4961245;28;20546;-86
2021/10/24 04:26:31;;;;;;;12.97;5.77;;;;;;;;;;4982755;28;20604;-86
2021/10/24 04:29:35;;;;;;;9.33;4.83;;;;;;;;;;4980582;28;20545;-86
2021/10/24 04:32:41;;;;;;;8.70;4.10;;;;;;;;;;4990963;28;20608;-86
2021/10/24 04:35:46;;;;;;;6.10;4.47;;;;;;;;;;4980025;28;20581;-86
2021/10/24 04:38:50;;;;;;;8.17;4.30;;;;;;;;;;4990974;28;20556;-86
2021/10/24 04:41:55;;;;;;;9.00;4.50;;;;;;;;;;4979738;28;20644;-86
2021/10/24 04:44:59;;;;;;;8.07;4.53;;;;;;;;;;4991183;28;20541;-86
2021/10/24 04:48:03;;;;;;;5.83;4.43;;;;;;;;;;4990297;28;20663;-87
2021/10/24 04:51:15;;;;;;;10.13;4.10;;;;;;;;;;4989761;28;20640;-86
2021/10/24 04:54:19;;;;;;;7.33;4.23;;;;;;;;;;5001624;28;21149;-86
2021/10/24 04:57:25;;;;;;;8.87;3.97;;;;;;;;;;4990355;28;20596;-86
2021/10/24 05:00:29;;;;;;;7.27;4.80;;;;;;;;;;4991272;28;20545;-87
2021/10/24 05:03:33;;;;;;;8.57;4.57;;;;;;;;;;5007911;28;20596;-87
2021/10/24 05:06:38;;;;;;;8.10;4.60;;;;;;;;;;4979367;28;20588;-87
2021/10/24 05:09:42;;;;;;;9.03;4.63;;;;;;;;;;5013066;28;20553;-87
2021/10/24 05:12:46;;;;;;;11.60;4.63;;;;;;;;;;4979367;28;20612;-87
2021/10/24 05:15:51;;;;;;;7.07;4.40;;;;;;;;;;4990311;28;20596;-87
2021/10/24 05:18:56;;;;;;;5.50;4.30;;;;;;;;;;4990126;28;20556;-87
2021/10/24 05:22:01;;;;;;;10.03;5.10;;;;;;;;;;5001375;28;20656;-87
2021/10/24 05:25:05;;;;;;;9.73;4.97;;;;;;;;;;5012391;28;20553;-86
2021/10/24 05:28:13;;;;;;;9.23;5.23;;;;;;;;;;4990673;28;20540;-87
2021/10/24 05:31:18;;;;;;;12.53;5.40;;;;;;;;;;5003723;28;20615;-87
2021/10/24 05:34:42;;;;;;;8.23;5.73;;;;;;;;;;4994166;28;20561;-87
2021/10/24 05:37:53;;;;;;;8.77;5.20;;;;;;;;;;4983366;28;20585;-86
2021/10/24 05:40:58;;;;;;;8.90;5.40;;;;;;;;;;4992428;28;20644;-86
2021/10/24 05:44:03;;;;;;;9.27;6.07;;;;;;;;;;5016214;28;20912;-87
2021/10/24 05:47:08;;;;;;;8.40;5.63;;;;;;;;;;4993872;28;20600;-87
2021/10/24 05:50:12;;;;;;;9.87;6.93;;;;;;;;;;5015853;28;20572;-87
2021/10/24 05:53:16;;;;;;;12.00;6.63;;;;;;;;;;4993953;28;20537;-87
2021/10/24 05:56:20;;;;;;;10.50;6.67;;;;;;;;;;5004151;28;20620;-87
2021/10/24 05:59:25;;;;;;;10.10;6.43;;;;;;;;;;4982750;28;20612;-87
2021/10/24 06:02:40;;;;;;;9.37;7.10;;;;;;;;;;4984007;28;20652;-87
2021/10/24 06:06:22;;;;;;;10.73;6.83;;;;;;;;;;4948241;28;20602;-87
2021/10/24 06:09:40;;;;;;;9.60;6.50;;;;;;;;;;4976030;28;20562;-87
2021/10/24 06:12:53;;;;;;;11.20;7.23;;;;;;;;;;4993677;28;20623;-87
2021/10/24 06:15:57;;;;;;;13.37;7.30;;;;;;;;;;5002031;28;20940;-86
2021/10/24 06:19:02;;;;;;;9.53;7.03;;;;;;;;;;4996466;28;20557;-86
2021/10/24 06:22:05;;;;;;;11.50;7.77;;;;;;;;;;4990078;28;21233;-86
2021/10/24 06:25:13;;;;;;;12.77;7.33;;;;;;;;;;5015253;28;20588;-86
2021/10/24 06:28:17;;;;;;;8.37;6.33;;;;;;;;;;4993102;28;20584;-86
2021/10/24 06:31:21;;;;;;;8.87;6.03;;;;;;;;;;4993872;28;20651;-86
2021/10/24 06:34:51;;;;;;;11.93;7.10;;;;;;;;;;4988641;28;20620;-87
2021/10/24 06:38:17;;;;;;;10.07;6.40;;;;;;;;;;5004310;28;20556;-87
2021/10/24 06:41:22;;;;;;;8.20;6.30;;;;;;;;;;4994857;28;20644;-87
2021/10/24 06:44:56;;;;;;;8.27;6.37;;;;;;;;;;5002726;28;20620;-87
2021/10/24 06:48:13;;;;;;;11.87;7.03;;;;;;;;;;5015199;28;20608;-87
2021/10/24 06:51:40;;;;;;;13.27;6.87;;;;;;;;;;5014507;28;20659;-87
2021/10/24 06:55:11;;;;;;;13.97;7.93;;;;;;;;;;4994251;28;21138;-87
2021/10/24 06:58:36;;;;;;;8.63;5.73;;;;;;;;;;5007502;28;20624;-87
2021/10/24 07:01:58;;;;;;;12.90;7.13;;;;;;;;;;5015076;28;20984;-87
2021/10/24 07:05:25;;;;;;;16.20;7.97;;;;;;;;;;4995289;28;20576;-87
2021/10/24 07:08:37;;;;;;;15.90;8.53;;;;;;;;;;4981922;28;21142;-87
2021/10/24 07:11:41;;;;;;;13.53;9.17;;;;;;;;;;5014180;28;20652;-88
2021/10/24 07:14:45;;;;;;;17.63;9.77;;;;;;;;;;4990572;28;20647;-87
2021/10/24 07:17:51;;;;;;;11.53;7.83;;;;;;;;;;4995458;28;20642;-87
2021/10/24 07:20:55;;;;;;;12.27;8.57;;;;;;;;;;4980432;28;20592;-87
2021/10/24 07:23:59;;;;;;;11.77;7.50;;;;;;;;;;4989584;28;21135;-87
2021/10/24 07:27:10;;;;;;;10.30;7.47;;;;;;;;;;5010826;28;20976;-87
2021/10/24 07:30:15;;;;;;;14.10;8.97;;;;;;;;;;4989105;28;20581;-87
2021/10/24 07:33:28;;;;;;;15.17;8.63;;;;;;;;;;4993679;28;20620;-87
2021/10/24 07:36:52;;;;;;;11.67;8.73;;;;;;;;;;4985707;28;20589;-86
2021/10/24 07:39:58;;;;;;;16.73;8.50;;;;;;;;;;4990782;28;21127;-86
2021/10/24 07:43:03;;;;;;;15.23;8.30;;;;;;;;;;4968717;28;20658;-87
2021/10/24 07:46:07;;;;;;;13.10;8.30;;;;;;;;;;4977708;28;20597;-86
2021/10/24 07:49:13;;;;;;;14.17;8.00;;;;;;;;;;4998600;28;20956;-87
2021/10/24 07:52:18;;;;;;;13.17;8.13;;;;;;;;;;4998613;28;20656;-87
2021/10/24 07:55:23;;;;;;;12.93;7.53;;;;;;;;;;5000551;28;20596;-87
2021/10/24 07:58:28;;;;;;;11.63;8.33;;;;;;;;;;5001253;28;20545;-87
2021/10/24 08:01:38;;;;;;;10.13;7.53;;;;;;;;;;4990908;28;20221;-87
2021/10/24 08:04:48;;;;;;;14.07;7.33;;;;;;;;;;4980029;28;20193;-87
2021/10/24 08:07:53;;;;;;;10.90;6.93;;;;;;;;;;4990616;28;20197;-87
2021/10/24 08:10:57;;;;;;;10.63;6.77;;;;;;;;;;5002027;28;20197;-87
2021/10/24 08:14:03;;;;;;;11.20;6.73;;;;;;;;;;4991364;28;20197;-87
2021/10/24 08:17:08;;;;;;;9.97;6.53;;;;;;;;;;4974465;28;20190;-87
2021/10/24 08:20:13;;;;;;;9.90;6.97;;;;;;;;;;5004943;28;20186;-87
2021/10/24 08:23:18;;;;;;;9.40;5.70;;;;;;;;;;4997770;28;20221;-87
2021/10/24 08:26:23;;;;;;;10.93;6.87;;;;;;;;;;4991229;28;20198;-87
2021/10/24 08:29:27;;;;;;;7.70;5.90;;;;;;;;;;5002246;28;20193;-87
2021/10/24 08:32:44;;;;;;;8.83;6.00;;;;;;;;;;5013809;28;20213;-87
2021/10/24 08:35:47;;;;;;;6.70;5.40;;;;;;;;;;5002511;28;20182;-87
2021/10/24 08:38:53;;;;;;;9.27;5.53;;;;;;;;;;5003141;28;20204;-87
2021/10/24 08:41:57;;;;;;;7.83;5.07;;;;;;;;;;5001897;28;20220;-87
2021/10/24 08:45:02;;;;;;;12.40;5.30;;;;;;;;;;4990161;28;20189;-87
2021/10/24 08:48:06;;;;;;;9.07;5.03;;;;;;;;;;4980891;28;20189;-87
2021/10/24 08:51:10;;;;;;;7.23;5.13;;;;;;;;;;4990856;28;20565;-87
2021/10/24 08:54:18;;;;;;;9.13;4.97;;;;;;;;;;4989901;28;20189;-88
2021/10/24 08:57:24;;;;;;;8.40;4.70;;;;;;;;;;4977044;28;20190;-87
2021/10/24 09:00:28;;;;;;;6.40;4.00;;;;;;;;;;4989866;28;20644;-86
2021/10/24 09:03:32;;;;;;;8.70;4.03;;;;;;;;;;4987322;28;20216;-86
2021/10/24 09:06:53;;;;;;;6.07;4.40;;;;;;;;;;5001298;28;20521;-87
2021/10/24 09:10:00;;;;;;;7.90;4.20;;;;;;;;;;4990568;28;20202;-87
2021/10/24 09:13:07;;;;;;;5.50;4.20;;;;;;;;;;4990483;28;20189;-86
2021/10/24 09:16:12;;;;;;;7.87;3.80;;;;;;;;;;4991399;28;20186;-87
2021/10/24 09:19:16;;;;;;;7.23;3.77;;;;;;;;;;4990443;28;20209;-86
2021/10/24 09:22:37;;;;;;;8.60;4.40;;;;;;;;;;5001390;28;20570;-87
2021/10/24 09:25:57;;;;;;;6.27;3.40;;;;;;;;;;4990915;28;20621;-87
2021/10/24 09:29:16;;;;;;;8.60;4.47;;;;;;;;;;4989269;28;20193;-86
2021/10/24 09:32:20;;;;;;;5.13;3.60;;;;;;;;;;5012412;28;20221;-86
2021/10/24 09:35:46;;;;;;;10.87;4.83;;;;;;;;;;5001105;28;20205;-86
2021/10/24 09:39:09;;;;;;;11.93;5.30;;;;;;;;;;5005966;28;20212;-86
2021/10/24 09:42:17;;;;;;;8.97;5.57;;;;;;;;;;4978434;28;20229;-86
2021/10/24 09:45:21;;;;;;;9.97;4.00;;;;;;;;;;4989819;28;20197;-86
2021/10/24 09:48:33;;;;;;;6.93;3.57;;;;;;;;;;5000729;28;20196;-87
2021/10/24 09:51:37;;;;;;;8.10;4.33;;;;;;;;;;5040001;22;20656;-87
2021/10/24 09:54:48;;;;;;;7.00;4.20;;;;;;;;;;4998884;28;20679;-86
2021/10/24 09:57:52;;;;;;;5.50;3.40;;;;;;;;;;5021237;28;20671;-86
2021/10/24 10:00:56;;;;;;;6.33;3.60;;;;;;;;;;5017910;28;20192;-87
2021/10/24 10:04:01;;;;;;;4.73;3.10;;;;;;;;;;4996392;28;20213;-86
2021/10/24 10:07:06;;;;;;;6.03;3.03;;;;;;;;;;4998518;28;20190;-87
2021/10/24 10:10:10;;;;;;;6.63;3.10;;;;;;;;;;5009727;28;20177;-87
2021/10/24 10:13:18;;;;;;;7.83;2.87;;;;;;;;;;5019016;28;20212;-86
2021/10/24 10:16:39;;;;;;;4.90;2.57;;;;;;;;;;4999313;28;20189;-86
2021/10/24 10:19:44;;;;;;;4.50;2.90;;;;;;;;;;5024575;28;20521;-86
2021/10/24 10:23:09;;;;;;;4.83;2.43;;;;;;;;;;5013067;28;20703;-87
2021/10/24 10:26:34;;;;;;;6.93;3.10;;;;;;;;;;5015951;28;20186;-86
2021/10/24 10:29:53;;;;;;;4.57;2.80;;;;;;;;;;4993761;28;20186;-86
2021/10/24 10:32:57;;;;;;;4.63;3.10;;;;;;;;;;5016695;28;20217;-87
2021/10/24 10:36:08;;;;;;;4.43;2.77;;;;;;;;;;4994130;28;20193;-86
2021/10/24 10:39:30;;;;;;;4.43;2.30;;;;;;;;;;4993363;28;20186;-87
2021/10/24 10:42:46;;;;;;;5.07;2.47;;;;;;;;;;4985136;28;20229;-88
2021/10/24 10:45:56;;;;;;;3.83;2.33;;;;;;;;;;4994292;28;20201;-86
2021/10/24 10:49:21;;;;;;;5.00;2.30;;;;;;;;;;4995423;28;20193;-86
2021/10/24 10:52:41;;;;;;;5.67;2.40;;;;;;;;;;5017230;28;20228;-87
2021/10/24 10:56:01;;;;;;;5.97;2.57;;;;;;;;;;4984080;28;20205;-88
2021/10/24 10:59:06;;;;;;;5.40;2.50;;;;;;;;;;4999746;28;20197;-87
2021/10/24 11:02:23;;;;;;;2.90;2.30;;;;;;;;;;4993506;28;20573;-86
2021/10/24 11:05:40;;;;;;;5.27;2.37;;;;;;;;;;5005759;28;20219;-87
2021/10/24 11:08:52;;;;;;;3.13;2.17;;;;;;;;;;5008449;28;20533;-86
2021/10/24 11:11:56;;;;;;;2.67;2.07;;;;;;;;;;5008944;28;20221;-87
2021/10/24 11:15:18;;;;;;;4.90;2.17;;;;;;;;;;5007604;28;20196;-86
2021/10/24 11:18:32;;;;;;;3.37;1.87;;;;;;;;;;5017783;28;20201;-87
2021/10/24 11:21:37;;;;;;;3.87;2.27;;;;;;;;;;5007786;28;20229;-86
2021/10/24 11:24:44;;;;;;;2.87;2.00;;;;;;;;;;4984300;28;20221;-87
2021/10/24 11:27:49;;;;;;;3.10;2.00;;;;;;;;;;5018245;28;20200;-86
2021/10/24 11:31:06;;;;;;;4.50;2.00;;;;;;;;;;4997124;28;20184;-86
2021/10/24 11:34:32;;;;;;;4.67;2.10;;;;;;;;;;4993867;28;20198;-88
2021/10/24 11:37:45;;;;;;;4.03;2.10;;;;;;;;;;5001526;28;20546;-87
2021/10/24 11:40:49;;;;;;;3.67;2.13;;;;;;;;;;5010928;28;20687;-87
2021/10/24 11:44:09;;;;;;;2.20;1.87;;;;;;;;;;4999083;28;20221;-87
2021/10/24 11:47:15;;;;;;;2.93;1.87;;;;;;;;;;5015673;28;20206;-87
2021/10/24 11:50:56;;;;;;;5.70;2.40;;;;;;;;;;5020412;28;20552;-86
2021/10/24 11:54:02;;;;;;;2.93;2.00;;;;;;;;;;5010406;28;20200;-87
2021/10/24 11:57:32;;;;;;;3.63;2.03;;;;;;;;;;5003206;28;20189;-87
2021/10/24 12:00:51;;;;;;;5.83;2.27;;;;;;;;;;5013544;28;20192;-87
2021/10/24 12:04:07;;;;;;;3.47;1.80;;;;;;;;;;5003274;28;20217;-87
2021/10/24 12:07:11;;;;;;;5.13;1.83;;;;;;;;;;5014494;28;20545;-87
2021/10/24 12:10:15;;;;;;;3.50;1.83;;;;;;;;;;5000312;28;20192;-87
2021/10/24 12:13:30;;;;;;;5.07;2.17;;;;;;;;;;4999307;28;20220;-87
2021/10/24 12:16:38;;;;;;;4.27;2.20;;;;;;;;;;4999501;28;20189;-87
2021/10/24 12:19:42;;;;;;;4.57;1.70;;;;;;;;;;5011213;28;20200;-87
2021/10/24 12:22:51;;;;;;;4.00;1.87;;;;;;;;;;4980554;28;20225;-87
2021/10/24 12:25:58;;;;;;;5.43;1.77;;;;;;;;;;5002640;28;20201;-87
2021/10/24 12:29:12;;;;;;;4.13;1.87;;;;;;;;;;4992527;28;20189;-87
2021/10/24 12:32:16;;;;;;;7.40;2.10;;;;;;;;;;5010832;28;20228;-87
2021/10/24 12:35:21;;;;;;;3.97;1.77;;;;;;;;;;5010033;28;20520;-87
2021/10/24 12:38:48;;;;;;;4.87;1.90;;;;;;;;;;5004606;28;20197;-87
2021/10/24 12:41:53;;;;;;;3.97;1.50;;;;;;;;;;4992413;28;20565;-87
2021/10/24 12:44:57;;;;;;;3.33;1.77;;;;;;;;;;5009056;28;20208;-87
2021/10/24 12:48:01;;;;;;;4.00;1.57;;;;;;;;;;5008308;28;20517;-87
2021/10/24 12:51:24;;;;;;;2.63;1.40;;;;;;;;;;5007176;28;20671;-87
2021/10/24 12:54:30;;;;;;;2.97;1.60;;;;;;;;;;5020846;28;20534;-87
2021/10/24 12:57:34;;;;;;;3.20;1.70;;;;;;;;;;5010719;28;20200;-87
2021/10/24 13:00:38;;;;;;;3.33;1.50;;;;;;;;;;4997453;28;20541;-88
2021/10/24 13:03:42;;;;;;;2.80;1.40;;;;;;;;;;5008408;28;20213;-87
2021/10/24 13:06:46;;;;;;;2.23;1.60;;;;;;;;;;5006793;28;20196;-87
2021/10/24 13:09:50;;;;;;;3.10;1.40;;;;;;;;;;4998859;28;20200;-87
2021/10/24 13:12:54;;;;;;;3.53;1.60;;;;;;;;;;5009624;28;20216;-88
2021/10/24 13:15:59;;;;;;;6.97;1.40;;;;;;;;;;5010012;28;20181;-88
2021/10/24 13:19:03;;;;;;;5.63;1.60;;;;;;;;;;5010162;28;20655;-87
2021/10/24 13:25:30;;;;;;;2.73;1.30;;;;;;;;;;5009938;28;20217;-87
2021/10/24 13:28:34;;;;;;;2.40;1.30;;;;;;;;;;5010239;28;20185;-87
2021/10/24 13:31:39;;;;;;;3.47;1.60;;;;;;;;;;4999293;28;20560;-87
2021/10/24 13:34:43;;;;;;;2.53;1.50;;;;;;;;;;5009847;28;20173;-87
2021/10/24 13:37:48;;;;;;;4.73;1.90;;;;;;;;;;4998987;28;20177;-87
2021/10/24 13:40:52;;;;;;;2.57;1.17;;;;;;;;;;4999058;28;20185;-87
2021/10/24 13:43:56;;;;;;;4.10;1.70;;;;;;;;;;5010375;28;20213;-87
2021/10/24 13:47:00;;;;;;;10.23;2.30;;;;;;;;;;5021484;28;20528;-87
2021/10/24 13:50:05;;;;;;;7.77;1.57;;;;;;;;;;5021410;28;20196;-87
2021/10/24 13:53:09;;;;;;;4.13;1.50;;;;;;;;;;5002255;28;20232;-86
2021/10/24 13:56:13;;;;;;;3.33;1.50;;;;;;;;;;5002922;28;20184;-87
2021/10/24 13:59:18;;;;;;;3.80;1.90;;;;;;;;;;5013470;28;20196;-87
2021/10/24 14:02:22;;;;;;;5.07;1.83;;;;;;;;;;5037003;28;20224;-87
2021/10/24 14:05:26;;;;;;;5.77;1.57;;;;;;;;;;5013591;28;20212;-87
2021/10/24 14:08:30;;;;;;;7.00;1.70;;;;;;;;;;5013159;28;20536;-87
2021/10/24 14:11:34;;;;;;;3.70;1.80;;;;;;;;;;5002147;28;20220;-87
2021/10/24 14:14:39;;;;;;;8.13;2.10;;;;;;;;;;5002654;28;20181;-87
2021/10/24 14:17:44;;;;;;;6.53;1.87;;;;;;;;;;5013338;28;20205;-87
2021/10/24 14:20:48;;;;;;;5.27;1.63;;;;;;;;;;5013316;28;20189;-87
2021/10/24 14:23:52;;;;;;;4.80;1.87;;;;;;;;;;5013280;28;20216;-87
2021/10/24 14:26:56;;;;;;;4.73;1.77;;;;;;;;;;5002657;28;20185;-87
2021/10/24 14:30:01;;;;;;;5.90;1.70;;;;;;;;;;5013237;28;20192;-87
2021/10/24 14:33:05;;;;;;;5.77;2.20;;;;;;;;;;5001565;28;20224;-86
2021/10/24 14:36:09;;;;;;;3.17;1.60;;;;;;;;;;5013380;28;20631;-87
2021/10/24 14:39:14;;;;;;;9.17;1.60;;;;;;;;;;5001719;28;20204;-87
2021/10/24 14:42:18;;;;;;;3.83;1.40;;;;;;;;;;5023956;28;20224;-87
2021/10/24 14:45:24;;;;;;;3.73;1.80;;;;;;;;;;5012866;28;20228;-87
2021/10/24 14:48:28;;;;;;;3.70;1.70;;;;;;;;;;5001554;28;20185;-87
2021/10/24 14:51:32;;;;;;;2.77;1.23;;;;;;;;;;5024025;28;20224;-87
2021/10/24 14:54:36;;;;;;;3.57;1.77;;;;;;;;;;5002338;28;20517;-87
2021/10/24 14:57:40;;;;;;;4.67;1.53;;;;;;;;;;5002055;28;20185;-87
2021/10/24 15:00:45;;;;;;;4.47;1.80;;;;;;;;;;5000805;28;20189;-85
2021/10/24 15:03:49;;;;;;;4.30;1.47;;;;;;;;;;5000489;28;20180;-87
2021/10/24 15:06:53;;;;;;;2.57;1.70;;;;;;;;;;5011781;28;20193;-87
2021/10/24 15:09:57;;;;;;;4.00;1.83;;;;;;;;;;5023143;28;20193;-87
2021/10/24 15:13:04;;;;;;;5.90;1.87;;;;;;;;;;5022185;28;20220;-87
2021/10/24 15:16:29;;;;;;;2.97;1.60;;;;;;;;;;4981644;28;20177;-86
2021/10/24 15:21:10;;;;;;;2.63;1.40;;;;;;;;;;4995535;28;20553;-87
2021/10/24 15:22:57;;;;;;;10.63;2.30;;;;;;;;;;5011411;28;20229;-86
2021/10/24 15:26:03;;;;;;;4.60;1.73;;;;;;;;;;5011054;28;20617;-87
2021/10/24 15:29:07;;;;;;;3.40;1.67;;;;;;;;;;5023260;28;20185;-87
2021/10/24 15:32:11;;;;;;;3.47;1.40;;;;;;;;;;4992086;28;20217;-86
2021/10/24 15:35:15;;;;;;;8.37;1.57;;;;;;;;;;4999421;28;20197;-85
2021/10/24 15:38:20;;;;;;;5.17;1.60;;;;;;;;;;4992027;28;20201;-86
2021/10/24 15:41:24;;;;;;;3.33;1.47;;;;;;;;;;5004843;28;20668;-85
2021/10/24 15:44:29;;;;;;;5.57;1.50;;;;;;;;;;5007615;28;20216;-85
2021/10/24 15:47:33;;;;;;;5.80;1.50;;;;;;;;;;5007826;28;20197;-86
2021/10/24 15:50:37;;;;;;;5.67;1.30;;;;;;;;;;5007238;28;20196;-86
2021/10/24 15:53:41;;;;;;;3.43;1.33;;;;;;;;;;5007320;28;20212;-86
2021/10/24 15:56:46;;;;;;;3.73;1.73;;;;;;;;;;4996107;28;20201;-85
2021/10/24 15:59:50;;;;;;;4.33;1.57;;;;;;;;;;4999008;28;20580;-86
2021/10/24 16:02:54;;;;;;;1.97;1.60;;;;;;;;;;4993985;28;20224;-85
2021/10/24 16:06:00;;;;;;;3.23;1.37;;;;;;;;;;4995938;28;20232;-85
2021/10/24 16:09:06;;;;;;;3.63;1.83;;;;;;;;;;5006864;28;20180;-85
2021/10/24 16:12:10;;;;;;;2.47;1.60;;;;;;;;;;4994601;28;20221;-85
2021/10/24 16:15:14;;;;;;;6.50;1.50;;;;;;;;;;5011625;28;20219;-85
2021/10/24 16:18:18;;;;;;;3.37;1.53;;;;;;;;;;4998673;28;20185;-85
2021/10/24 16:21:23;;;;;;;2.83;1.53;;;;;;;;;;4992376;28;20197;-85
2021/10/24 16:24:27;;;;;;;4.23;1.60;;;;;;;;;;4987372;28;20217;-85
2021/10/24 16:27:31;;;;;;;4.00;1.43;;;;;;;;;;4987521;28;20652;-87
2021/10/24 16:30:35;;;;;;;7.70;1.83;;;;;;;;;;5002843;28;20200;-86
2021/10/24 16:33:39;;;;;;;4.67;1.67;;;;;;;;;;5017691;28;20204;-86
2021/10/24 16:36:43;;;;;;;2.40;1.70;;;;;;;;;;5011965;28;20185;-85
2021/10/24 16:39:48;;;;;;;5.17;1.90;;;;;;;;;;5006772;28;20189;-85
2021/10/24 16:42:54;;;;;;;2.07;1.50;;;;;;;;;;5007101;28;20236;-85
2021/10/24 16:45:58;;;;;;;8.43;1.50;;;;;;;;;;5005573;28;20209;-85
2021/10/24 16:49:02;;;;;;;4.00;1.60;;;;;;;;;;5006683;28;20180;-86
2021/10/24 16:52:06;;;;;;;4.90;1.63;;;;;;;;;;4995091;28;20240;-86
2021/10/24 16:55:10;;;;;;;4.53;1.60;;;;;;;;;;5017772;28;20205;-85
2021/10/24 16:58:15;;;;;;;4.27;1.70;;;;;;;;;;5006005;28;20212;-85
2021/10/24 17:01:19;;;;;;;3.20;1.50;;;;;;;;;;5017584;28;20181;-86
2021/10/24 17:04:24;;;;;;;4.23;1.70;;;;;;;;;;5006489;28;20188;-85
2021/10/24 17:07:28;;;;;;;4.20;2.13;;;;;;;;;;4987140;28;20192;-86
2021/10/24 17:10:32;;;;;;;4.07;1.73;;;;;;;;;;5009157;28;20190;-86
2021/10/24 17:13:36;;;;;;;3.80;1.57;;;;;;;;;;5002903;28;20209;-85
2021/10/24 17:16:40;;;;;;;2.17;1.60;;;;;;;;;;4986858;28;20193;-85
2021/10/24 17:19:46;;;;;;;3.37;1.80;;;;;;;;;;5005272;28;20196;-86
2021/10/24 17:22:50;;;;;;;5.83;1.80;;;;;;;;;;5004128;28;20224;-85
2021/10/24 17:25:56;;;;;;;3.47;1.73;;;;;;;;;;5006427;28;20212;-85
2021/10/24 17:29:00;;;;;;;4.13;1.60;;;;;;;;;;4999418;28;20185;-85
2021/10/24 17:32:06;;;;;;;5.40;1.80;;;;;;;;;;5010702;28;20216;-85
2021/10/24 17:35:11;;;;;;;4.47;1.90;;;;;;;;;;5010582;28;20659;-84
2021/10/24 17:38:16;;;;;;;5.60;2.27;;;;;;;;;;4998688;28;20200;-84
2021/10/24 17:41:20;;;;;;;4.83;2.57;;;;;;;;;;5001226;28;20545;-84
2021/10/24 17:44:24;;;;;;;5.37;2.13;;;;;;;;;;5003638;28;20196;-84
2021/10/24 17:47:30;;;;;;;4.40;2.40;;;;;;;;;;5008065;28;20188;-84
2021/10/24 17:50:35;;;;;;;4.23;2.50;;;;;;;;;;5018058;28;20201;-85
2021/10/24 17:53:39;;;;;;;7.20;2.50;;;;;;;;;;5011610;28;20908;-85
2021/10/24 17:56:43;;;;;;;5.57;2.73;;;;;;;;;;4999921;28;20197;-84
2021/10/24 17:59:47;;;;;;;7.07;2.47;;;;;;;;;;5009015;28;20181;-85
2021/10/24 18:02:52;;;;;;;3.83;2.30;;;;;;;;;;5009900;28;20224;-85
2021/10/24 18:05:56;;;;;;;5.67;2.23;;;;;;;;;;5001461;28;20214;-84
2021/10/24 18:09:00;;;;;;;5.47;2.40;;;;;;;;;;5008934;28;20205;-85
2021/10/24 18:12:05;;;;;;;5.10;2.90;;;;;;;;;;5005373;28;20213;-84
2021/10/24 18:15:10;;;;;;;4.03;2.37;;;;;;;;;;4998384;28;20200;-84
2021/10/24 18:18:14;;;;;;;5.80;2.43;;;;;;;;;;5009666;28;20189;-84
2021/10/24 18:21:20;;;;;;;5.70;2.40;;;;;;;;;;5008647;28;20201;-84
2021/10/24 18:24:24;;;;;;;4.27;2.37;;;;;;;;;;4990593;28;20186;-86
2021/10/24 18:27:28;;;;;;;4.00;2.53;;;;;;;;;;4987589;28;20186;-85
2021/10/24 18:30:35;;;;;;;5.20;2.50;;;;;;;;;;4982703;28;20189;-85
2021/10/24 18:33:39;;;;;;;7.37;2.83;;;;;;;;;;4991649;28;20193;-85
2021/10/24 18:36:44;;;;;;;6.77;3.07;;;;;;;;;;4989492;28;20201;-85
2021/10/24 18:39:51;;;;;;;4.40;2.80;;;;;;;;;;4998232;28;20648;-85
2021/10/24 18:42:56;;;;;;;5.93;3.33;;;;;;;;;;4997730;28;20225;-86